createdAt,value
2018-07-24T00:02:19.997Z,20.80
2018-07-24T00:04:47.573Z,20.90
2018-07-24T00:07:15.145Z,20.90
2018-07-24T00:09:42.949Z,21.00
2018-07-24T00:12:10.537Z,20.90
2018-07-24T00:14:38.077Z,20.90
2018-07-24T00:17:05.645Z,20.90
2018-07-24T00:19:33.229Z,20.80
2018-07-24T00:22:00.784Z,20.50
2018-07-24T00:24:28.484Z,20.40
2018-07-24T00:26:56.052Z,20.40
2018-07-24T00:29:23.580Z,20.50
2018-07-24T00:31:51.126Z,20.40
2018-07-24T00:34:19.220Z,20.50
2018-07-24T00:36:46.792Z,20.50
2018-07-24T00:39:14.383Z,20.50
2018-07-24T00:41:41.965Z,20.40
2018-07-24T00:44:09.537Z,20.30
2018-07-24T00:46:37.085Z,20.40
2018-07-24T00:49:04.666Z,20.30
2018-07-24T00:51:32.251Z,20.20
2018-07-24T00:53:59.778Z,20.10
2018-07-24T00:56:27.380Z,19.90
2018-07-24T00:58:54.933Z,19.90
2018-07-24T01:01:22.569Z,19.90
2018-07-24T01:03:50.097Z,19.90
2018-07-24T01:06:17.702Z,20.00
2018-07-24T01:08:45.218Z,20.00
2018-07-24T01:11:12.759Z,19.90
2018-07-24T01:13:40.341Z,20.00
2018-07-24T01:16:07.860Z,19.90
2018-07-24T01:18:35.408Z,19.90
2018-07-24T01:21:03.034Z,19.80
2018-07-24T01:23:30.604Z,19.80
2018-07-24T01:25:58.182Z,19.80
2018-07-24T01:28:25.742Z,19.80
2018-07-24T01:30:53.316Z,19.80
2018-07-24T01:33:20.841Z,19.70
2018-07-24T01:35:48.391Z,19.60
2018-07-24T01:38:15.966Z,19.50
2018-07-24T01:40:43.485Z,19.50
2018-07-24T01:43:11.071Z,19.50
2018-07-24T01:45:38.593Z,19.50
2018-07-24T01:48:06.387Z,19.50
2018-07-24T01:50:34.010Z,19.50
2018-07-24T01:53:01.603Z,19.40
2018-07-24T01:55:29.190Z,19.30
2018-07-24T01:57:56.772Z,19.20
2018-07-24T02:00:25.137Z,19.30
2018-07-24T02:02:52.705Z,19.40
2018-07-24T02:05:20.268Z,19.50
2018-07-24T02:07:47.802Z,19.50
2018-07-24T02:10:15.382Z,19.50
2018-07-24T02:12:42.956Z,19.50
2018-07-24T02:15:10.495Z,19.60
2018-07-24T02:17:38.063Z,19.60
2018-07-24T02:20:05.869Z,19.50
2018-07-24T02:22:33.406Z,19.50
2018-07-24T02:25:01.197Z,19.40
2018-07-24T02:27:28.840Z,19.40
2018-07-24T02:29:56.602Z,19.30
2018-07-24T02:32:24.175Z,19.20
2018-07-24T02:34:51.768Z,19.00
2018-07-24T02:37:19.342Z,19.10
2018-07-24T02:39:46.852Z,19.00
2018-07-24T02:42:14.413Z,19.00
2018-07-24T02:44:41.987Z,19.00
2018-07-24T02:47:09.528Z,19.10
2018-07-24T02:49:37.070Z,19.00
2018-07-24T02:52:04.722Z,18.90
2018-07-24T02:54:32.321Z,18.90
2018-07-24T02:57:00.873Z,18.90
2018-07-24T02:59:28.505Z,18.80
2018-07-24T03:01:56.075Z,18.70
2018-07-24T03:04:23.635Z,18.70
2018-07-24T03:06:51.156Z,18.70
2018-07-24T03:09:18.797Z,18.70
2018-07-24T03:11:46.396Z,18.70
2018-07-24T03:14:13.975Z,18.60
2018-07-24T03:16:41.543Z,18.70
2018-07-24T03:19:09.126Z,18.60
2018-07-24T03:21:37.448Z,18.50
2018-07-24T03:24:05.060Z,18.40
2018-07-24T03:26:32.629Z,18.40
2018-07-24T03:29:00.356Z,18.40
2018-07-24T03:31:29.491Z,18.40
2018-07-24T03:33:57.050Z,18.50
2018-07-24T03:38:53.283Z,18.60
2018-07-24T03:41:20.843Z,18.60
2018-07-24T03:43:48.410Z,18.70
2018-07-24T03:46:16.006Z,18.70
2018-07-24T03:48:43.583Z,18.80
2018-07-24T03:51:11.188Z,18.90
2018-07-24T03:53:38.762Z,18.90
2018-07-24T03:56:06.834Z,18.90
2018-07-24T03:58:34.421Z,19.00
2018-07-24T04:01:01.977Z,19.00
2018-07-24T04:03:29.502Z,19.00
2018-07-24T04:05:57.093Z,19.10
2018-07-24T04:08:24.635Z,19.10
2018-07-24T04:10:52.169Z,19.10
2018-07-24T04:13:19.740Z,19.20
2018-07-24T04:15:47.277Z,19.10
2018-07-24T04:18:15.896Z,19.20
2018-07-24T04:20:43.453Z,19.20
2018-07-24T04:23:11.021Z,19.10
2018-07-24T04:25:38.562Z,19.20
2018-07-24T04:28:06.154Z,19.20
2018-07-24T04:30:33.760Z,19.30
2018-07-24T04:33:01.310Z,19.40
2018-07-24T04:35:28.914Z,19.50
2018-07-24T04:37:56.497Z,19.60
2018-07-24T04:40:24.099Z,19.80
2018-07-24T04:42:51.829Z,19.90
2018-07-24T04:45:19.373Z,19.80
2018-07-24T04:47:46.925Z,20.00
2018-07-24T04:50:14.486Z,20.00
2018-07-24T04:52:42.035Z,20.10
2018-07-24T04:55:09.587Z,20.30
2018-07-24T04:57:37.169Z,20.30
2018-07-24T05:02:32.525Z,20.60
2018-07-24T05:05:00.022Z,20.60
2018-07-24T05:07:27.542Z,20.70
2018-07-24T05:09:55.335Z,20.80
2018-07-24T05:12:22.931Z,20.80
2018-07-24T05:14:50.664Z,20.70
2018-07-24T05:17:18.226Z,20.90
2018-07-24T05:19:45.757Z,21.20
2018-07-24T05:22:13.822Z,21.20
2018-07-24T05:24:41.417Z,21.40
2018-07-24T05:27:08.977Z,21.60
2018-07-24T05:29:36.564Z,21.70
2018-07-24T05:32:04.210Z,21.90
2018-07-24T05:34:32.380Z,22.10
2018-07-24T05:36:59.937Z,22.60
2018-07-24T05:39:27.471Z,23.00
2018-07-24T05:41:55.030Z,23.30
2018-07-24T05:44:22.626Z,23.20
2018-07-24T05:46:50.173Z,23.10
2018-07-24T05:49:17.710Z,23.00
2018-07-24T05:51:45.315Z,23.10
2018-07-24T05:54:12.845Z,23.00
2018-07-24T05:56:40.365Z,23.20
2018-07-24T05:59:07.901Z,23.10
2018-07-24T06:01:35.479Z,23.40
2018-07-24T06:04:03.073Z,23.90
2018-07-24T06:06:30.695Z,23.80
2018-07-24T06:08:58.254Z,23.90
2018-07-24T06:11:25.773Z,24.20
2018-07-24T06:13:53.320Z,24.00
2018-07-24T06:16:20.858Z,24.10
2018-07-24T06:18:48.400Z,23.90
2018-07-24T06:21:15.993Z,24.20
2018-07-24T06:23:43.696Z,23.90
2018-07-24T06:26:11.240Z,24.10
2018-07-24T06:28:38.840Z,24.30
2018-07-24T06:31:06.420Z,24.50
2018-07-24T06:33:33.995Z,24.70
2018-07-24T06:36:01.554Z,24.90
2018-07-24T06:38:29.143Z,24.70
2018-07-24T06:40:56.719Z,25.10
2018-07-24T06:43:24.369Z,25.30
2018-07-24T06:45:52.258Z,24.90
2018-07-24T06:48:19.790Z,24.80
2018-07-24T06:50:47.334Z,24.50
2018-07-24T06:53:14.880Z,23.90
2018-07-24T06:55:42.472Z,24.30
2018-07-24T06:58:10.048Z,24.30
2018-07-24T07:00:37.742Z,24.50
2018-07-24T07:03:05.520Z,24.80
2018-07-24T07:05:33.148Z,24.90
2018-07-24T07:08:01.199Z,25.30
2018-07-24T07:10:28.892Z,25.00
2018-07-24T07:15:24.303Z,25.30
2018-07-24T07:17:51.881Z,25.40
2018-07-24T07:20:19.405Z,25.60
2018-07-24T07:22:47.105Z,26.00
2018-07-24T07:25:14.673Z,26.20
2018-07-24T07:27:42.243Z,26.30
2018-07-24T07:30:09.899Z,26.20
2018-07-24T07:32:37.556Z,26.00
2018-07-24T07:35:05.296Z,25.60
2018-07-24T07:37:32.898Z,25.50
2018-07-24T07:40:00.523Z,25.80
2018-07-24T07:42:28.266Z,26.10
2018-07-24T07:44:55.854Z,26.20
2018-07-24T07:47:23.466Z,26.30
2018-07-24T07:49:51.097Z,26.50
2018-07-24T07:52:18.660Z,26.50
2018-07-24T07:54:46.550Z,26.60
2018-07-24T07:57:14.122Z,26.70
2018-07-24T07:59:41.622Z,26.90
2018-07-24T08:02:09.218Z,26.90
2018-07-24T08:04:36.772Z,26.90
2018-07-24T08:07:04.502Z,26.80
2018-07-24T08:09:32.072Z,26.80
2018-07-24T08:11:59.847Z,26.80
2018-07-24T08:14:27.402Z,26.80
2018-07-24T08:16:54.983Z,26.90
2018-07-24T08:19:22.625Z,26.90
2018-07-24T08:21:50.263Z,27.10
2018-07-24T08:24:17.807Z,27.20
2018-07-24T08:26:45.377Z,27.30
2018-07-24T08:29:12.949Z,27.20
2018-07-24T08:31:40.597Z,27.30
2018-07-24T08:34:08.253Z,27.30
2018-07-24T08:36:35.847Z,27.40
2018-07-24T08:39:08.024Z,27.30
2018-07-24T08:41:35.612Z,27.30
2018-07-24T08:44:03.289Z,27.50
2018-07-24T08:46:30.862Z,27.60
2018-07-24T08:48:58.445Z,27.50
2018-07-24T08:51:26.024Z,27.50
2018-07-24T08:53:53.880Z,27.50
2018-07-24T08:56:21.196Z,27.50
2018-07-24T08:58:48.731Z,27.60
2018-07-24T09:01:16.329Z,27.60
2018-07-24T09:03:43.903Z,27.70
2018-07-24T09:06:11.493Z,27.80
2018-07-24T09:08:39.074Z,27.50
2018-07-24T09:11:07.115Z,27.30
2018-07-24T09:13:34.724Z,27.40
2018-07-24T09:16:02.366Z,27.40
2018-07-24T09:18:29.912Z,27.50
2018-07-24T09:20:57.506Z,27.60
2018-07-24T09:23:25.060Z,27.50
2018-07-24T09:25:52.610Z,27.70
2018-07-24T09:28:20.182Z,27.40
2018-07-24T09:30:47.786Z,27.50
2018-07-24T09:33:15.513Z,27.60
2018-07-24T09:35:43.079Z,27.50
2018-07-24T09:38:10.848Z,27.50
2018-07-24T09:40:38.472Z,27.30
2018-07-24T09:43:06.086Z,27.20
2018-07-24T09:45:33.697Z,27.20
2018-07-24T09:48:01.241Z,27.30
2018-07-24T09:50:28.945Z,27.40
2018-07-24T09:52:56.515Z,27.40
2018-07-24T09:55:24.085Z,27.50
2018-07-24T09:57:52.110Z,27.70
2018-07-24T10:00:24.331Z,27.80
2018-07-24T10:02:51.919Z,27.90
2018-07-24T10:05:26.290Z,28.00
2018-07-24T10:07:53.818Z,27.90
2018-07-24T10:10:21.447Z,27.90
2018-07-24T10:12:49.145Z,27.90
2018-07-24T10:15:16.621Z,27.90
2018-07-24T10:17:44.161Z,27.90
2018-07-24T10:20:11.939Z,28.10
2018-07-24T10:22:39.706Z,28.30
2018-07-24T10:25:07.309Z,28.40
2018-07-24T10:27:34.977Z,28.50
2018-07-24T10:30:02.617Z,28.60
2018-07-24T10:32:30.244Z,28.70
2018-07-24T10:34:57.873Z,28.60
2018-07-24T10:37:25.491Z,28.70
2018-07-24T10:39:53.114Z,28.80
2018-07-24T10:42:20.776Z,28.80
2018-07-24T10:44:48.414Z,28.90
2018-07-24T10:47:16.055Z,28.90
2018-07-24T10:49:43.674Z,28.90
2018-07-24T10:52:11.258Z,28.90
2018-07-24T10:54:38.920Z,28.50
2018-07-24T10:57:06.477Z,28.60
2018-07-24T10:59:33.998Z,28.70
2018-07-24T11:02:01.579Z,28.80
2018-07-24T11:04:29.215Z,28.80
2018-07-24T11:09:24.564Z,29.10
2018-07-24T11:11:52.213Z,29.10
2018-07-24T11:14:20.395Z,29.20
2018-07-24T11:16:47.965Z,29.30
2018-07-24T11:19:15.563Z,29.40
2018-07-24T11:21:43.137Z,29.60
2018-07-24T11:24:10.728Z,29.60
2018-07-24T11:26:38.338Z,29.60
2018-07-24T11:29:06.000Z,29.80
2018-07-24T11:31:33.570Z,29.80
2018-07-24T11:34:01.190Z,29.90
2018-07-24T11:36:28.850Z,30.00
2018-07-24T11:38:56.516Z,30.00
2018-07-24T11:41:24.180Z,30.10
2018-07-24T11:43:51.794Z,30.10
2018-07-24T11:46:19.378Z,30.20
2018-07-24T11:48:47.053Z,30.30
2018-07-24T11:51:14.681Z,30.30
2018-07-24T11:53:42.217Z,30.50
2018-07-24T11:56:09.861Z,30.30
2018-07-24T11:58:37.422Z,30.30
2018-07-24T12:01:05.018Z,30.30
2018-07-24T12:03:32.716Z,30.40
2018-07-24T12:06:00.281Z,30.60
2018-07-24T12:08:27.969Z,30.80
2018-07-24T12:10:55.775Z,31.00
2018-07-24T12:13:23.471Z,31.30
2018-07-24T12:15:51.189Z,31.60
2018-07-24T12:18:19.897Z,31.60
2018-07-24T12:20:47.610Z,31.90
2018-07-24T12:23:15.174Z,32.10
2018-07-24T12:25:42.768Z,32.40
2018-07-24T12:28:10.654Z,32.50
2018-07-24T12:30:39.417Z,32.70
2018-07-24T12:33:07.030Z,32.80
2018-07-24T12:35:34.675Z,33.00
2018-07-24T12:38:02.451Z,33.20
2018-07-24T12:40:30.002Z,33.40
2018-07-24T12:42:57.578Z,33.50
2018-07-24T12:45:25.194Z,33.80
2018-07-24T12:47:52.763Z,33.90
2018-07-24T12:50:20.378Z,34.10
2018-07-24T12:52:47.967Z,34.40
2018-07-24T12:55:15.541Z,34.70
2018-07-24T12:57:43.108Z,35.10
2018-07-24T13:00:10.718Z,35.20
2018-07-24T13:02:38.327Z,35.40
2018-07-24T13:05:05.954Z,35.30
2018-07-24T13:07:33.544Z,35.30
2018-07-24T13:10:01.233Z,35.40
2018-07-24T13:12:28.717Z,35.50
2018-07-24T13:14:56.251Z,35.70
2018-07-24T13:17:23.861Z,36.00
2018-07-24T13:19:51.946Z,35.80
2018-07-24T13:22:19.537Z,35.80
2018-07-24T13:24:47.101Z,35.60
2018-07-24T13:27:14.673Z,35.00
2018-07-24T13:29:42.287Z,35.40
2018-07-24T13:32:10.061Z,35.70
2018-07-24T13:34:37.466Z,35.70
2018-07-24T13:37:05.050Z,36.10
2018-07-24T13:39:32.634Z,36.30
2018-07-24T13:42:00.228Z,36.30
2018-07-24T13:44:27.794Z,36.50
2018-07-24T13:46:55.385Z,36.70
2018-07-24T13:49:22.988Z,36.90
2018-07-24T13:51:50.615Z,37.30
2018-07-24T13:54:18.406Z,37.40
2018-07-24T13:56:46.003Z,37.40
2018-07-24T13:59:13.593Z,37.60
2018-07-24T14:01:41.163Z,38.00
2018-07-24T14:04:08.925Z,38.30
2018-07-24T14:06:36.517Z,38.30
2018-07-24T14:09:07.238Z,38.10
2018-07-24T14:11:34.859Z,38.30
2018-07-24T14:14:02.454Z,38.40
2018-07-24T14:16:30.037Z,38.10
2018-07-24T14:18:57.591Z,37.80
2018-07-24T14:21:25.209Z,37.80
2018-07-24T14:26:20.556Z,37.30
2018-07-24T14:28:48.155Z,37.50
2018-07-24T14:31:15.823Z,37.60
2018-07-24T14:33:43.432Z,37.40
2018-07-24T14:36:10.985Z,37.90
2018-07-24T14:38:38.567Z,38.40
2018-07-24T14:41:06.364Z,38.50
2018-07-24T14:43:34.112Z,39.10
2018-07-24T14:46:01.777Z,39.30
2018-07-24T14:48:29.639Z,39.50
2018-07-24T14:50:57.238Z,39.20
2018-07-24T14:53:31.654Z,39.40
2018-07-24T14:55:59.251Z,39.90
2018-07-24T14:58:26.802Z,39.90
2018-07-24T15:00:54.449Z,39.70
2018-07-24T15:03:22.093Z,38.90
2018-07-24T15:05:49.643Z,39.20
2018-07-24T15:08:17.246Z,39.30
2018-07-24T15:10:44.875Z,39.90
2018-07-24T15:13:12.509Z,40.50
2018-07-24T15:15:40.101Z,40.50
2018-07-24T15:18:07.678Z,40.30
2018-07-24T15:20:35.376Z,40.40
2018-07-24T15:23:02.985Z,39.90
2018-07-24T15:25:30.600Z,39.60
2018-07-24T15:27:58.142Z,40.00
2018-07-24T15:30:25.856Z,40.40
2018-07-24T15:32:53.444Z,40.60
2018-07-24T15:35:21.052Z,41.00
2018-07-24T15:37:48.737Z,41.00
2018-07-24T15:40:16.286Z,41.40
2018-07-24T15:42:43.900Z,41.80
2018-07-24T15:45:11.418Z,41.90
2018-07-24T15:47:39.023Z,41.50
2018-07-24T15:50:06.729Z,40.90
2018-07-24T15:52:34.387Z,40.80
2018-07-24T15:55:01.981Z,41.00
2018-07-24T15:57:29.562Z,40.90
2018-07-24T15:59:57.147Z,41.20
2018-07-24T16:02:25.130Z,40.30
2018-07-24T16:04:52.738Z,40.00
2018-07-24T16:07:20.394Z,39.90
2018-07-24T16:09:48.004Z,39.90
2018-07-24T16:12:15.571Z,40.40
2018-07-24T16:14:43.127Z,40.50
2018-07-24T16:17:10.901Z,40.90
2018-07-24T16:19:39.348Z,41.00
2018-07-24T16:22:07.311Z,41.30
2018-07-24T16:24:35.684Z,41.50
2018-07-24T16:27:03.338Z,41.50
2018-07-24T16:29:30.976Z,40.90
2018-07-24T16:31:58.800Z,41.20
2018-07-24T16:34:26.436Z,41.40
2018-07-24T16:36:54.782Z,41.10
2018-07-24T16:39:22.398Z,41.10
2018-07-24T16:41:50.256Z,40.90
2018-07-24T16:44:17.974Z,40.40
2018-07-24T16:46:45.671Z,40.10
2018-07-24T16:49:13.339Z,40.30
2018-07-24T16:51:41.040Z,40.50
2018-07-24T16:54:08.857Z,40.70
2018-07-24T16:56:36.741Z,40.50
2018-07-24T16:59:04.457Z,40.20
2018-07-24T17:01:32.141Z,40.30
2018-07-24T17:03:59.827Z,40.10
2018-07-24T17:06:27.425Z,40.20
2018-07-24T17:08:55.100Z,40.10
2018-07-24T17:11:22.725Z,40.10
2018-07-24T17:13:50.423Z,40.10
2018-07-24T17:16:18.360Z,40.20
2018-07-24T17:18:46.845Z,40.50
2018-07-24T17:21:14.451Z,40.40
2018-07-24T17:23:42.020Z,40.30
2018-07-24T17:26:09.922Z,40.20
2018-07-24T17:28:37.462Z,40.10
2018-07-24T17:31:05.478Z,39.90
2018-07-24T17:33:33.084Z,39.70
2018-07-24T17:36:01.332Z,39.40
2018-07-24T17:38:29.018Z,39.00
2018-07-24T17:40:56.777Z,39.10
2018-07-24T17:43:24.513Z,39.00
2018-07-24T17:45:52.112Z,38.90
2018-07-24T17:48:19.838Z,38.70
2018-07-24T17:50:47.561Z,38.60
2018-07-24T17:53:15.280Z,38.60
2018-07-24T17:55:43.039Z,38.40
2018-07-24T17:58:10.626Z,38.30
2018-07-24T18:00:38.297Z,38.50
2018-07-24T18:03:06.189Z,38.20
2018-07-24T18:05:33.813Z,38.00
2018-07-24T18:08:01.466Z,37.70
2018-07-24T18:10:29.124Z,37.30
2018-07-24T18:12:57.717Z,37.00
2018-07-24T18:15:25.432Z,36.80
2018-07-24T18:17:53.085Z,36.60
2018-07-24T18:20:21.062Z,35.80
2018-07-24T18:22:48.960Z,35.50
2018-07-24T18:25:16.704Z,35.30
2018-07-24T18:27:44.451Z,34.90
2018-07-24T18:30:12.182Z,34.40
2018-07-24T18:32:39.830Z,33.90
2018-07-24T18:35:08.451Z,33.60
2018-07-24T18:37:36.212Z,33.30
2018-07-24T18:40:04.200Z,33.20
2018-07-24T18:44:59.472Z,32.80
2018-07-24T18:47:27.240Z,32.40
2018-07-24T18:49:55.128Z,32.30
2018-07-24T18:52:22.814Z,32.10
2018-07-24T18:54:50.622Z,31.90
2018-07-24T18:57:18.330Z,31.70
2018-07-24T18:59:46.152Z,31.60
2018-07-24T19:02:13.906Z,31.40
2018-07-24T19:04:42.335Z,31.20
2018-07-24T19:07:10.369Z,31.10
2018-07-24T19:09:38.008Z,31.10
2018-07-24T19:12:05.755Z,31.00
2018-07-24T19:14:33.976Z,30.90
2018-07-24T19:17:01.738Z,30.70
2018-07-24T19:19:29.401Z,30.60
2018-07-24T19:21:57.271Z,30.40
2018-07-24T19:24:25.139Z,30.40
2018-07-24T19:26:52.843Z,30.30
2018-07-24T19:29:21.509Z,30.20
2018-07-24T19:31:49.265Z,30.00
2018-07-24T19:34:17.130Z,29.90
2018-07-24T19:36:45.423Z,29.80
2018-07-24T19:39:13.101Z,29.70
2018-07-24T19:41:40.892Z,29.60
2018-07-24T19:44:09.141Z,29.40
2018-07-24T19:46:36.971Z,29.40
2018-07-24T19:49:05.109Z,29.40
2018-07-24T19:51:32.899Z,29.30
2018-07-24T19:54:01.613Z,29.20
2018-07-24T19:56:29.787Z,29.20
2018-07-24T19:58:57.927Z,29.10
2018-07-24T20:01:25.712Z,29.00
2018-07-24T20:03:53.522Z,28.90
2018-07-24T20:08:49.030Z,28.70
2018-07-24T20:11:16.873Z,28.70
2018-07-24T20:13:44.686Z,28.60
2018-07-24T20:16:12.780Z,28.60
2018-07-24T20:18:40.706Z,28.50
2018-07-24T20:21:08.561Z,28.40
2018-07-24T20:23:36.227Z,28.30
2018-07-24T20:26:03.954Z,28.30
2018-07-24T20:28:31.715Z,28.10
2018-07-24T20:30:59.558Z,28.10
2018-07-24T20:33:27.194Z,28.00
2018-07-24T20:35:54.958Z,28.00
2018-07-24T20:38:22.660Z,27.90
2018-07-24T20:40:50.377Z,27.90
2018-07-24T20:43:18.110Z,27.80
2018-07-24T20:45:45.819Z,27.70
2018-07-24T20:48:13.503Z,27.60
2018-07-24T20:50:46.176Z,27.50
2018-07-24T20:53:13.962Z,27.50
2018-07-24T20:55:41.832Z,27.50
2018-07-24T20:58:09.559Z,27.40
2018-07-24T21:00:37.351Z,27.40
2018-07-24T21:03:04.986Z,27.30
2018-07-24T21:05:32.857Z,27.30
2018-07-24T21:08:00.474Z,27.20
2018-07-24T21:10:28.092Z,27.20
2018-07-24T21:12:55.757Z,27.00
2018-07-24T21:15:23.591Z,26.90
2018-07-24T21:17:51.266Z,26.90
2018-07-24T21:20:19.008Z,26.80
2018-07-24T21:22:46.630Z,26.80
2018-07-24T21:25:14.585Z,26.80
2018-07-24T21:27:42.141Z,26.80
2018-07-24T21:30:10.257Z,26.70
2018-07-24T21:32:37.929Z,26.60
2018-07-24T21:35:05.718Z,26.60
2018-07-24T21:37:33.348Z,26.50
2018-07-24T21:40:01.082Z,26.40
2018-07-24T21:42:28.730Z,26.40
2018-07-24T21:44:56.293Z,26.30
2018-07-24T21:47:24.548Z,26.20
2018-07-24T21:49:52.146Z,26.20
2018-07-24T21:52:19.787Z,26.10
2018-07-24T21:57:15.019Z,25.90
2018-07-24T21:59:42.670Z,25.80
2018-07-24T22:02:10.251Z,25.80
2018-07-24T22:07:05.502Z,25.60
2018-07-24T22:09:33.146Z,25.30
2018-07-24T22:12:00.757Z,25.20
2018-07-24T22:14:28.341Z,25.20
2018-07-24T22:16:55.911Z,25.10
2018-07-24T22:19:23.551Z,25.10
2018-07-24T22:21:51.177Z,25.00
2018-07-24T22:24:18.753Z,25.00
2018-07-24T22:26:46.315Z,25.00
2018-07-24T22:29:14.213Z,25.00
2018-07-24T22:31:41.786Z,24.90
2018-07-24T22:34:09.366Z,24.90
2018-07-24T22:36:37.002Z,24.80
2018-07-24T22:41:35.834Z,24.70
2018-07-24T22:44:03.619Z,24.70
2018-07-24T22:46:31.317Z,24.60
2018-07-24T22:48:58.944Z,24.60
2018-07-24T22:51:26.544Z,24.50
2018-07-24T22:53:54.167Z,24.50
2018-07-24T22:56:21.790Z,24.40
2018-07-24T22:58:49.420Z,24.40
2018-07-24T23:01:17.026Z,24.40
2018-07-24T23:03:44.606Z,24.20
2018-07-24T23:06:12.256Z,24.10
2018-07-24T23:08:39.846Z,23.80
2018-07-24T23:11:07.460Z,23.90
2018-07-24T23:13:34.966Z,24.00
2018-07-24T23:16:02.553Z,23.90
2018-07-24T23:18:30.153Z,23.90
2018-07-24T23:20:57.777Z,23.90
2018-07-24T23:23:25.427Z,23.80
2018-07-24T23:25:53.784Z,23.70
2018-07-24T23:28:21.801Z,23.70
2018-07-24T23:33:16.952Z,23.60
2018-07-24T23:35:44.476Z,23.50
2018-07-24T23:38:12.067Z,23.30
2018-07-24T23:40:39.642Z,23.30
2018-07-24T23:43:07.299Z,23.20
2018-07-24T23:45:34.823Z,23.20
2018-07-24T23:50:30.098Z,23.00
2018-07-24T23:52:58.210Z,23.00
2018-07-24T23:55:25.832Z,22.90
2018-07-24T23:57:53.450Z,22.90
